createdAt,value
2022-12-24T00:00:35.301Z,99581.13
2022-12-24T00:03:38.500Z,99575.97
2022-12-24T00:06:40.927Z,99571.66
2022-12-24T00:09:43.285Z,99580.56
2022-12-24T00:12:45.587Z,99576.72
2022-12-24T00:15:48.470Z,99564.88
2022-12-24T00:18:50.796Z,99579.38
2022-12-24T00:21:53.207Z,99576.56
2022-12-24T00:24:55.566Z,99576.56
2022-12-24T00:27:58.143Z,99576.38
2022-12-24T00:31:00.513Z,99573.91
2022-12-24T00:34:02.982Z,99579.81
2022-12-24T00:37:06.265Z,99590.03
2022-12-24T00:40:09.273Z,99583.69
2022-12-24T00:43:11.603Z,99578.81
2022-12-24T00:46:13.970Z,99589.34
2022-12-24T00:49:16.564Z,99587.06
2022-12-24T00:52:18.940Z,99593.84
2022-12-24T00:55:21.314Z,99598.84
2022-12-24T00:58:23.650Z,99597.75
2022-12-24T01:01:26.872Z,99590.94
2022-12-24T01:04:48.024Z,99589.41
2022-12-24T01:07:50.943Z,99599.84
2022-12-24T01:10:53.302Z,99606.19
2022-12-24T01:13:56.675Z,99609.13
2022-12-24T01:16:58.988Z,99609.13
2022-12-24T01:20:01.534Z,99597.84
2022-12-24T01:23:03.842Z,99608.78
2022-12-24T01:26:06.607Z,99603.88
2022-12-24T01:29:08.934Z,99611.75
2022-12-24T01:32:11.309Z,99591.50
2022-12-24T01:35:13.582Z,99612.78
2022-12-24T01:38:16.323Z,99615.09
2022-12-24T01:41:40.641Z,99620.47
2022-12-24T01:44:45.108Z,99611.25
2022-12-24T01:47:48.147Z,99611.38
2022-12-24T01:50:52.109Z,99624.34
2022-12-24T01:53:59.733Z,99624.94
2022-12-24T01:57:10.257Z,99623.53
2022-12-24T02:00:16.045Z,99636.25
2022-12-24T02:03:19.419Z,99625.03
2022-12-24T02:06:22.684Z,99636.59
2022-12-24T02:09:25.073Z,99629.81
2022-12-24T02:12:29.655Z,99632.47
2022-12-24T02:15:57.088Z,99638.06
2022-12-24T02:19:23.139Z,99639.72
2022-12-24T02:22:40.445Z,99652.22
2022-12-24T02:25:51.483Z,99645.44
2022-12-24T02:29:06.961Z,99639.38
2022-12-24T02:32:18.272Z,99649.25
2022-12-24T02:35:42.943Z,99645.22
2022-12-24T02:38:50.250Z,99642.91
2022-12-24T02:42:06.344Z,99623.63
2022-12-24T02:45:15.441Z,99640.44
2022-12-24T02:48:18.313Z,99655.00
2022-12-24T02:51:24.973Z,99651.38
2022-12-24T02:54:27.810Z,99645.28
2022-12-24T02:57:48.695Z,99651.50
2022-12-24T03:00:53.627Z,99657.81
2022-12-24T03:04:16.102Z,99652.53
2022-12-24T03:07:30.550Z,99653.78
2022-12-24T03:10:48.313Z,99647.97
2022-12-24T03:13:51.225Z,99658.25
2022-12-24T03:16:53.555Z,99654.97
2022-12-24T03:19:56.436Z,99658.47
2022-12-24T03:22:58.927Z,99662.53
2022-12-24T03:26:02.948Z,99663.09
2022-12-24T03:29:09.043Z,99655.00
2022-12-24T03:32:11.363Z,99668.31
2022-12-24T03:35:13.784Z,99667.75
2022-12-24T03:38:16.226Z,99670.50
2022-12-24T03:41:18.801Z,99683.16
2022-12-24T03:44:21.137Z,99664.88
2022-12-24T03:47:23.512Z,99683.72
2022-12-24T03:50:26.024Z,99668.63
2022-12-24T03:53:28.583Z,99684.28
2022-12-24T03:56:31.044Z,99683.31
2022-12-24T03:59:33.425Z,99681.56
2022-12-24T04:02:35.815Z,99693.47
2022-12-24T04:05:38.236Z,99681.56
2022-12-24T04:08:41.572Z,99682.59
2022-12-24T04:11:43.911Z,99696.28
2022-12-24T04:14:46.184Z,99686.00
2022-12-24T04:17:48.432Z,99688.81
2022-12-24T04:20:50.729Z,99686.38
2022-12-24T04:23:53.143Z,99695.34
2022-12-24T04:26:55.435Z,99697.22
2022-12-24T04:29:58.149Z,99693.13
2022-12-24T04:33:00.500Z,99694.59
2022-12-24T04:36:04.609Z,99695.53
2022-12-24T04:39:07.003Z,99687.00
2022-12-24T04:42:09.311Z,99689.16
2022-12-24T04:45:11.869Z,99704.56
2022-12-24T04:48:14.189Z,99688.25
2022-12-24T04:51:17.950Z,99704.81
2022-12-24T04:54:20.193Z,99710.34
2022-12-24T04:57:22.469Z,99703.09
2022-12-24T05:00:24.920Z,99710.75
2022-12-24T05:03:28.021Z,99711.28
2022-12-24T05:06:32.375Z,99710.91
2022-12-24T05:09:34.892Z,99714.78
2022-12-24T05:12:37.450Z,99715.34
2022-12-24T05:15:39.717Z,99721.75
2022-12-24T05:18:42.255Z,99720.34
2022-12-24T05:21:44.550Z,99722.88
2022-12-24T05:25:05.902Z,99724.13
2022-12-24T05:28:08.347Z,99726.75
2022-12-24T05:31:10.665Z,99737.31
2022-12-24T05:34:14.552Z,99729.56
2022-12-24T05:37:16.815Z,99729.50
2022-12-24T05:40:19.189Z,99728.50
2022-12-24T05:43:21.558Z,99743.75
2022-12-24T05:46:25.605Z,99751.00
2022-12-24T05:49:29.016Z,99743.22
2022-12-24T05:52:31.375Z,99767.88
2022-12-24T05:55:34.225Z,99768.41
2022-12-24T05:58:36.973Z,99764.78
2022-12-24T06:01:39.539Z,99776.50
2022-12-24T06:04:41.868Z,99783.19
2022-12-24T06:07:44.385Z,99780.53
2022-12-24T06:10:46.739Z,99786.94
2022-12-24T06:13:49.132Z,99791.31
2022-12-24T06:16:52.098Z,99785.31
2022-12-24T06:19:54.479Z,99786.16
2022-12-24T06:22:56.796Z,99783.47
2022-12-24T06:26:03.528Z,99789.06
2022-12-24T06:29:06.806Z,99789.63
2022-12-24T06:32:09.113Z,99799.50
2022-12-24T06:35:11.564Z,99803.00
2022-12-24T06:38:14.782Z,99807.94
2022-12-24T06:41:17.916Z,99806.84
2022-12-24T06:44:20.414Z,99814.25
2022-12-24T06:47:22.785Z,99818.09
2022-12-24T06:50:25.272Z,99822.91
2022-12-24T06:53:27.590Z,99823.25
2022-12-24T06:56:29.894Z,99837.88
2022-12-24T06:59:32.289Z,99846.19
2022-12-24T07:02:34.781Z,99843.44
2022-12-24T07:05:37.298Z,99848.09
2022-12-24T07:08:39.709Z,99850.59
2022-12-24T07:11:42.181Z,99851.47
2022-12-24T07:14:44.620Z,99856.63
2022-12-24T07:17:47.170Z,99858.59
2022-12-24T07:20:49.529Z,99857.50
2022-12-24T07:23:51.853Z,99857.38
2022-12-24T07:26:54.320Z,99877.72
2022-12-24T07:29:56.609Z,99881.41
2022-12-24T07:32:59.286Z,99888.44
2022-12-24T07:36:07.168Z,99894.47
2022-12-24T07:39:09.509Z,99889.69
2022-12-24T07:42:11.862Z,99891.50
2022-12-24T07:45:15.398Z,99910.41
2022-12-24T07:48:17.821Z,99910.63
2022-12-24T07:51:20.111Z,99893.44
2022-12-24T07:54:22.610Z,99914.28
2022-12-24T07:57:24.981Z,99915.25
2022-12-24T08:00:27.397Z,99924.66
2022-12-24T08:03:30.058Z,99932.56
2022-12-24T08:06:32.583Z,99921.28
2022-12-24T08:09:38.717Z,99897.50
2022-12-24T08:12:41.026Z,99935.44
2022-12-24T08:15:43.501Z,99927.84
2022-12-24T08:18:45.851Z,99950.78
2022-12-24T08:21:48.244Z,99949.22
2022-12-24T08:24:50.564Z,99950.34
2022-12-24T08:27:52.942Z,99952.50
2022-12-24T08:30:55.625Z,99940.19
2022-12-24T08:33:57.952Z,99953.56
2022-12-24T08:37:00.287Z,99961.31
2022-12-24T08:40:03.664Z,99958.63
2022-12-24T08:43:06.049Z,99967.41
2022-12-24T08:46:08.453Z,99968.28
2022-12-24T08:49:10.804Z,99972.59
2022-12-24T08:52:13.082Z,99973.59
2022-12-24T08:55:15.454Z,99981.81
2022-12-24T08:58:17.908Z,99963.50
2022-12-24T09:01:21.577Z,99987.41
2022-12-24T09:04:24.011Z,99999.06
2022-12-24T09:07:26.440Z,99995.34
2022-12-24T09:10:29.603Z,100005.41
2022-12-24T09:13:32.446Z,100001.47
2022-12-24T09:16:34.784Z,100010.28
2022-12-24T09:19:37.265Z,100008.91
2022-12-24T09:22:40.527Z,100006.44
2022-12-24T09:25:43.572Z,100011.94
2022-12-24T09:28:46.370Z,100026.78
2022-12-24T09:31:50.158Z,100015.59
2022-12-24T09:34:52.587Z,100018.59
2022-12-24T09:38:04.532Z,100007.25
2022-12-24T09:41:25.414Z,100018.94
2022-12-24T09:44:45.574Z,100011.78
2022-12-24T09:47:51.549Z,100023.03
2022-12-24T09:51:19.753Z,100031.59
2022-12-24T09:54:26.641Z,100033.09
2022-12-24T09:57:33.089Z,100026.06
2022-12-24T10:00:38.410Z,100021.69
2022-12-24T10:03:41.359Z,100012.34
2022-12-24T10:07:12.649Z,100034.41
2022-12-24T10:10:32.227Z,100039.91
2022-12-24T10:13:53.391Z,100060.97
2022-12-24T10:17:18.689Z,100056.56
2022-12-24T10:20:23.819Z,100055.09
2022-12-24T10:23:51.722Z,100058.44
2022-12-24T10:27:03.899Z,100061.28
2022-12-24T10:30:19.976Z,100075.16
2022-12-24T10:33:50.078Z,100070.28
2022-12-24T10:36:53.716Z,100066.41
2022-12-24T10:39:57.014Z,100068.41
2022-12-24T10:42:59.486Z,100072.97
2022-12-24T10:46:04.359Z,100064.91
2022-12-24T10:49:08.838Z,100078.84
2022-12-24T10:52:14.687Z,100085.16
2022-12-24T10:55:19.713Z,100080.72
2022-12-24T10:58:22.426Z,100078.38
2022-12-24T11:01:48.156Z,100090.59
2022-12-24T11:04:51.096Z,100080.38
2022-12-24T11:08:07.820Z,100081.81
2022-12-24T11:11:17.642Z,100099.03
2022-12-24T11:14:23.654Z,100100.75
2022-12-24T11:17:26.043Z,100101.91
2022-12-24T11:20:30.161Z,100111.19
2022-12-24T11:23:33.651Z,100091.16
2022-12-24T11:26:36.307Z,100097.63
2022-12-24T11:29:41.181Z,100086.94
2022-12-24T11:32:51.802Z,100113.78
2022-12-24T11:36:01.468Z,100111.91
2022-12-24T11:39:08.173Z,100119.00
2022-12-24T11:42:37.614Z,100123.66
2022-12-24T11:45:42.927Z,100127.81
2022-12-24T11:48:46.192Z,100131.09
2022-12-24T11:52:12.924Z,100143.81
2022-12-24T11:55:34.686Z,100153.53
2022-12-24T11:58:39.667Z,100160.72
2022-12-24T12:02:18.375Z,100161.84
2022-12-24T12:05:27.211Z,100161.59
2022-12-24T12:08:30.323Z,100160.63
2022-12-24T12:11:34.811Z,100162.53
2022-12-24T12:14:44.995Z,100149.34
2022-12-24T12:17:51.857Z,100166.41
2022-12-24T12:21:01.632Z,100154.72
2022-12-24T12:24:15.607Z,100166.63
2022-12-24T12:27:32.351Z,100175.09
2022-12-24T12:30:36.988Z,100153.78
2022-12-24T12:33:43.827Z,100179.75
2022-12-24T12:36:50.531Z,100189.25
2022-12-24T12:39:53.118Z,100180.97
2022-12-24T12:43:42.181Z,100192.28
2022-12-24T12:47:17.205Z,100202.75
2022-12-24T12:50:39.916Z,100209.78
2022-12-24T12:53:54.848Z,100205.81
2022-12-24T12:57:02.947Z,100199.19
2022-12-24T13:00:11.298Z,100211.19
2022-12-24T13:03:50.395Z,100213.53
2022-12-24T13:06:58.567Z,100216.41
2022-12-24T13:10:31.685Z,100219.97
2022-12-24T13:13:47.688Z,100236.59
2022-12-24T13:17:18.346Z,100241.78
2022-12-24T13:20:25.142Z,100244.09
2022-12-24T13:23:28.600Z,100220.38
2022-12-24T13:26:30.936Z,100245.19
2022-12-24T13:29:36.177Z,100239.97
2022-12-24T13:32:39.798Z,100235.22
2022-12-24T13:35:59.726Z,100226.06
2022-12-24T13:39:02.023Z,100238.88
2022-12-24T13:42:04.374Z,100241.69
2022-12-24T13:45:32.923Z,100247.38
2022-12-24T13:48:35.815Z,100245.97
2022-12-24T13:51:39.389Z,100251.75
2022-12-24T13:54:59.925Z,100261.09
2022-12-24T13:58:08.015Z,100258.09
2022-12-24T14:01:13.523Z,100271.34
2022-12-24T14:04:48.151Z,100257.72
2022-12-24T14:07:51.289Z,100271.16
2022-12-24T14:11:13.522Z,100280.75
2022-12-24T14:14:28.464Z,100291.84
2022-12-24T14:17:31.236Z,100294.53
2022-12-24T14:20:34.081Z,100301.72
2022-12-24T14:24:03.367Z,100312.38
2022-12-24T14:27:18.530Z,100314.88
2022-12-24T14:30:23.032Z,100315.25
2022-12-24T14:33:32.950Z,100328.06
2022-12-24T14:36:36.525Z,100307.44
2022-12-24T14:39:43.209Z,100323.75
2022-12-24T14:43:30.043Z,100329.75
2022-12-24T14:46:45.950Z,100335.94
2022-12-24T14:50:05.339Z,100342.94
2022-12-24T14:53:52.364Z,100317.03
2022-12-24T14:57:13.137Z,100351.84
2022-12-24T15:00:27.299Z,100356.78
2022-12-24T15:03:31.629Z,100354.53
2022-12-24T15:06:36.438Z,100363.34
2022-12-24T15:09:41.002Z,100355.91
2022-12-24T15:12:43.692Z,100363.41
2022-12-24T15:15:52.290Z,100376.44
2022-12-24T15:18:58.444Z,100371.22
2022-12-24T15:22:02.224Z,100358.16
2022-12-24T15:25:04.728Z,100372.00
2022-12-24T15:28:18.437Z,100372.94
2022-12-24T15:31:23.953Z,100377.88
2022-12-24T15:34:37.387Z,100372.50
2022-12-24T15:37:42.560Z,100380.34
2022-12-24T15:40:49.840Z,100384.50
2022-12-24T15:43:54.034Z,100382.44
2022-12-24T15:47:02.619Z,100395.66
2022-12-24T15:50:23.383Z,100403.53
2022-12-24T15:53:31.800Z,100404.78
2022-12-24T15:56:39.258Z,100405.63
2022-12-24T15:59:41.982Z,100399.41
2022-12-24T16:02:45.969Z,100404.78
2022-12-24T16:06:00.461Z,100415.53
2022-12-24T16:09:31.885Z,100419.88
2022-12-24T16:12:36.079Z,100426.44
2022-12-24T16:15:45.861Z,100422.94
2022-12-24T16:19:01.308Z,100420.88
2022-12-24T16:22:24.336Z,100433.69
2022-12-24T16:25:28.820Z,100433.69
2022-12-24T16:28:32.591Z,100428.13
2022-12-24T16:31:38.723Z,100424.81
2022-12-24T16:34:41.237Z,100439.25
2022-12-24T16:37:44.073Z,100438.69
2022-12-24T16:40:47.094Z,100429.66
2022-12-24T16:43:49.579Z,100446.75
2022-12-24T16:46:53.645Z,100450.06
2022-12-24T16:49:57.263Z,100462.69
2022-12-24T16:52:59.646Z,100463.16
2022-12-24T16:56:02.990Z,100466.66
2022-12-24T16:59:06.027Z,100457.34
2022-12-24T17:02:14.393Z,100452.44
2022-12-24T17:05:17.671Z,100465.09
2022-12-24T17:08:20.090Z,100477.03
2022-12-24T17:11:25.663Z,100471.09
2022-12-24T17:14:28.269Z,100472.53
2022-12-24T17:17:32.085Z,100473.59
2022-12-24T17:20:34.711Z,100470.31
2022-12-24T17:23:37.338Z,100483.97
2022-12-24T17:26:39.626Z,100487.06
2022-12-24T17:29:42.017Z,100486.63
2022-12-24T17:32:44.378Z,100493.91
2022-12-24T17:35:48.617Z,100486.84
2022-12-24T17:38:51.023Z,100474.28
2022-12-24T17:41:53.481Z,100491.44
2022-12-24T17:44:56.183Z,100483.56
2022-12-24T17:47:58.579Z,100493.06
2022-12-24T17:51:09.280Z,100477.59
2022-12-24T17:54:12.395Z,100483.38
2022-12-24T17:57:14.888Z,100488.94
2022-12-24T18:00:18.417Z,100486.25
2022-12-24T18:03:21.255Z,100481.91
2022-12-24T18:06:24.204Z,100487.69
2022-12-24T18:09:26.788Z,100495.16
2022-12-24T18:12:29.303Z,100491.00
2022-12-24T18:15:35.718Z,100470.97
2022-12-24T18:18:38.683Z,100505.88
2022-12-24T18:21:41.251Z,100505.03
2022-12-24T18:24:43.698Z,100498.44
2022-12-24T18:27:46.019Z,100500.09
2022-12-24T18:30:58.456Z,100499.88
2022-12-24T18:34:02.678Z,100505.88
2022-12-24T18:37:05.814Z,100513.69
2022-12-24T18:40:09.574Z,100508.97
2022-12-24T18:43:12.140Z,100514.13
2022-12-24T18:46:17.241Z,100522.59
2022-12-24T18:49:19.619Z,100528.56
2022-12-24T18:52:22.979Z,100528.75
2022-12-24T18:55:25.758Z,100542.63
2022-12-24T18:58:28.094Z,100493.25
2022-12-24T19:01:33.209Z,100539.28
2022-12-24T19:04:36.645Z,100519.88
2022-12-24T19:07:39.161Z,100546.13
2022-12-24T19:10:41.531Z,100546.31
2022-12-24T19:13:48.691Z,100549.63
2022-12-24T19:16:51.475Z,100552.50
2022-12-24T19:19:54.105Z,100557.66
2022-12-24T19:22:57.116Z,100556.44
2022-12-24T19:25:59.983Z,100564.94
2022-12-24T19:29:04.009Z,100570.47
2022-12-24T19:32:06.672Z,100576.47
2022-12-24T19:35:09.849Z,100593.44
2022-12-24T19:38:12.343Z,100587.81
2022-12-24T19:41:17.827Z,100604.97
2022-12-24T19:44:20.205Z,100611.22
2022-12-24T19:47:22.700Z,100608.53
2022-12-24T19:50:25.089Z,100616.59
2022-12-24T19:53:28.225Z,100608.28
2022-12-24T19:56:32.688Z,100617.78
2022-12-24T19:59:35.688Z,100635.97
2022-12-24T20:02:38.180Z,100634.94
2022-12-24T20:05:41.685Z,100626.66
2022-12-24T20:08:44.505Z,100636.19
2022-12-24T20:11:47.016Z,100641.94
2022-12-24T20:14:49.348Z,100640.50
2022-12-24T20:17:52.430Z,100639.88
2022-12-24T20:20:59.504Z,100644.44
2022-12-24T20:24:01.903Z,100634.72
2022-12-24T20:27:04.296Z,100652.94
2022-12-24T20:30:07.309Z,100646.13
2022-12-24T20:33:09.797Z,100652.94
2022-12-24T20:36:13.420Z,100642.19
2022-12-24T20:39:17.120Z,100648.38
2022-12-24T20:42:20.021Z,100639.94
2022-12-24T20:45:22.398Z,100650.84
2022-12-24T20:48:25.096Z,100653.34
2022-12-24T20:51:28.649Z,100657.47
2022-12-24T20:54:30.997Z,100650.25
2022-12-24T20:57:36.417Z,100653.16
2022-12-24T21:00:39.556Z,100653.94
2022-12-24T21:03:41.887Z,100660.38
2022-12-24T21:06:44.688Z,100649.38
2022-12-24T21:09:47.171Z,100644.84
2022-12-24T21:12:49.986Z,100654.78
2022-12-24T21:15:52.359Z,100655.84
2022-12-24T21:18:54.919Z,100664.50
2022-12-24T21:21:57.244Z,100668.44
2022-12-24T21:24:59.665Z,100656.66
2022-12-24T21:28:02.155Z,100670.69
2022-12-24T21:31:10.431Z,100674.88
2022-12-24T21:34:13.053Z,100664.91
2022-12-24T21:37:15.437Z,100655.00
2022-12-24T21:40:17.946Z,100668.22
2022-12-24T21:43:20.332Z,100663.50
2022-12-24T21:46:26.117Z,100643.44
2022-12-24T21:49:47.302Z,100646.13
2022-12-24T21:53:09.772Z,100660.38
2022-12-24T21:56:12.504Z,100664.91
2022-12-24T21:59:15.234Z,100670.72
2022-12-24T22:02:18.614Z,100672.31
2022-12-24T22:05:21.732Z,100654.97
2022-12-24T22:08:42.900Z,100650.66
2022-12-24T22:11:53.790Z,100649.22
2022-12-24T22:14:57.220Z,100636.59
2022-12-24T22:18:00.074Z,100641.38
2022-12-24T22:21:03.390Z,100641.13
2022-12-24T22:24:06.338Z,100642.78
2022-12-24T22:27:08.751Z,100639.06
2022-12-24T22:30:12.176Z,100634.69
2022-12-24T22:33:14.755Z,100634.75
2022-12-24T22:36:17.125Z,100632.50
2022-12-24T22:39:19.577Z,100650.66
2022-12-24T22:42:22.125Z,100639.91
2022-12-24T22:45:24.914Z,100656.84
2022-12-24T22:48:27.347Z,100668.00
2022-12-24T22:51:30.098Z,100663.06
2022-12-24T22:54:33.097Z,100663.69
2022-12-24T22:57:35.492Z,100662.66
2022-12-24T23:00:43.818Z,100668.22
2022-12-24T23:03:46.743Z,100658.72
2022-12-24T23:06:49.670Z,100657.47
2022-12-24T23:09:52.072Z,100675.03
2022-12-24T23:13:15.399Z,100669.88
2022-12-24T23:16:17.900Z,100672.97
2022-12-24T23:19:20.377Z,100682.28
2022-12-24T23:22:22.667Z,100687.63
2022-12-24T23:25:25.157Z,100689.72
2022-12-24T23:28:27.547Z,100698.41
2022-12-24T23:31:30.960Z,100685.16
2022-12-24T23:34:33.393Z,100700.25
2022-12-24T23:37:35.742Z,100694.69
2022-12-24T23:40:38.023Z,100701.06
2022-12-24T23:43:41.644Z,100693.84
2022-12-24T23:46:44.120Z,100709.34
2022-12-24T23:49:46.533Z,100711.41
2022-12-24T23:52:48.878Z,100716.81
2022-12-24T23:55:51.487Z,100725.88
2022-12-24T23:58:53.865Z,100729.78
